Time;durP1;ratioP1;P1;durP2;ratioP2;P2;SDS_P1;SDS_P2;PMS_P1;PMS_P2;Temp;Humidity;BMP_temperature;BMP_pressure;BME280_temperature;BME280_humidity;BME280_pressure;Samples;Min_cycle;Max_cycle;Signal;HPM_P1;HPM_P2
2021/12/30 00:01:34;;;;;;;93.87;46.75;;;;;;;-1.01;93.42;98859.89;1812503;77;20975;-61
2021/12/30 00:04:01;;;;;;;88.90;46.20;;;;;;;-0.97;93.61;98861.52;1805919;77;21470;-61
2021/12/30 00:06:29;;;;;;;89.42;47.50;;;;;;;-0.94;93.59;98855.51;1804805;77;20900;-61
2021/12/30 00:08:56;;;;;;;86.65;43.75;;;;;;;-0.94;93.54;98850.37;1812169;77;21241;-60
2021/12/30 00:11:23;;;;;;;93.47;47.10;;;;;;;-0.97;93.38;98847.87;1808911;77;20838;-61
2021/12/30 00:13:50;;;;;;;89.80;44.40;;;;;;;-1.01;93.33;98846.20;1800857;77;20879;-60
2021/12/30 00:16:18;;;;;;;89.77;44.70;;;;;;;-1.00;93.37;98842.79;1813586;77;20901;-61
2021/12/30 00:18:46;;;;;;;88.55;44.45;;;;;;;-1.01;93.35;98831.70;1813225;77;20974;-61
2021/12/30 00:21:13;;;;;;;98.30;48.38;;;;;;;-1.03;93.32;98827.47;1808775;77;21097;-61
2021/12/30 00:23:40;;;;;;;99.32;46.92;;;;;;;-1.04;93.50;98833.44;1811970;77;21644;-61
2021/12/30 00:26:08;;;;;;;94.40;47.13;;;;;;;-0.96;93.75;98834.17;1798440;77;21070;-61
2021/12/30 00:28:34;;;;;;;;;;;;;;;-0.97;93.55;98841.46;1809175;77;20855;-60
2021/12/30 00:31:02;;;;;;;92.85;44.70;;;;;;;-0.99;93.46;98841.47;1809790;77;20090;-61
2021/12/30 00:33:30;;;;;;;92.62;44.40;;;;;;;-1.00;93.56;98847.92;1809939;77;21114;-61
2021/12/30 00:35:57;;;;;;;93.47;45.20;;;;;;;-0.99;93.62;98855.56;1738487;79;20869;-61
2021/12/30 00:38:24;;;;;;;90.50;45.40;;;;;;;-0.99;93.52;98862.41;1772101;79;20847;-61
2021/12/30 00:40:51;;;;;;;93.78;46.55;;;;;;;-0.98;93.63;98858.97;1816994;77;21005;-61
2021/12/30 00:43:18;;;;;;;97.80;45.17;;;;;;;-0.98;93.63;98860.25;1810852;77;26719;-61
2021/12/30 00:45:45;;;;;;;86.40;44.13;;;;;;;-0.98;93.54;98864.09;1798163;77;21046;-61
2021/12/30 00:48:11;;;;;;;88.83;45.67;;;;;;;-1.11;93.51;98857.47;1817310;77;20876;-60
2021/12/30 00:50:42;;;;;;;89.50;43.98;;;;;;;-1.11;93.51;98857.47;1817489;77;20875;-61
2021/12/30 00:53:10;;;;;;;89.15;45.73;;;;;;;-0.99;93.65;98885.47;1803822;77;20911;-60
2021/12/30 00:55:37;;;;;;;93.45;45.78;;;;;;;-0.99;93.66;98888.87;1812445;77;20943;-61
2021/12/30 00:58:05;;;;;;;93.25;45.83;;;;;;;-0.98;93.66;98889.72;1806180;77;21154;-60
2021/12/30 01:00:34;;;;;;;89.03;42.62;;;;;;;-0.96;93.78;98896.95;1818207;77;20876;-61
2021/12/30 01:03:01;;;;;;;95.30;45.23;;;;;;;-0.91;93.91;98901.59;1799823;77;20987;-61
2021/12/30 01:05:27;;;;;;;84.37;44.40;;;;;;;-0.88;93.82;98906.66;1812040;77;21555;-61
2021/12/30 01:07:54;;;;;;;93.27;45.83;;;;;;;-0.88;93.83;98903.27;1800985;77;20957;-61
2021/12/30 01:10:23;;;;;;;91.10;44.67;;;;;;;-0.87;93.79;98905.78;1806461;77;21071;-61
2021/12/30 01:12:52;;;;;;;82.00;42.35;;;;;;;-0.86;93.84;98903.66;1808548;77;20897;-61
2021/12/30 01:15:24;;;;;;;88.15;43.10;;;;;;;-0.86;93.77;98896.41;1799577;77;20934;-61
2021/12/30 01:17:56;;;;;;;83.42;43.60;;;;;;;-0.91;93.70;98890.90;1812280;77;21016;-61
2021/12/30 01:20:21;;;;;;;85.67;43.23;;;;;;;-0.93;93.70;98885.38;1812515;77;20978;-61
2021/12/30 01:22:51;;;;;;;81.65;41.95;;;;;;;-0.96;93.72;98877.73;1813891;77;21779;-62
2021/12/30 01:25:18;;;;;;;86.50;42.58;;;;;;;-0.98;93.78;98878.19;1804533;77;20934;-61
2021/12/30 01:27:45;;;;;;;85.10;42.83;;;;;;;-0.97;93.85;98873.49;1799959;77;20931;-61
2021/12/30 01:30:17;;;;;;;89.87;43.45;;;;;;;-0.99;93.84;98859.84;1808418;77;21490;-61
2021/12/30 01:32:44;;;;;;;83.65;43.78;;;;;;;-1.00;93.90;98866.69;1798822;77;20934;-61
2021/12/30 01:35:15;;;;;;;82.12;42.08;;;;;;;-0.97;94.07;98874.77;1798876;78;21102;-61
2021/12/30 01:37:43;;;;;;;77.22;40.35;;;;;;;-0.93;94.28;98870.00;1771382;79;38483;-61
2021/12/30 01:40:14;;;;;;;75.92;39.20;;;;;;;-0.89;94.18;98871.67;1743906;80;20915;-61
2021/12/30 01:42:40;;;;;;;75.72;41.05;;;;;;;-0.90;94.05;98869.95;1812801;77;20852;-61
2021/12/30 01:45:09;;;;;;;75.52;41.40;;;;;;;-0.91;94.00;98873.40;1813461;77;20896;-61
2021/12/30 01:47:42;;;;;;;80.03;42.10;;;;;;;-0.91;93.96;98879.80;1808753;77;21182;-61
2021/12/30 01:50:06;;;;;;;76.42;40.75;;;;;;;-0.89;94.05;98892.17;1804098;77;21899;-61
2021/12/30 01:52:32;;;;;;;75.42;41.13;;;;;;;-0.83;94.22;98890.80;1811660;77;20920;-61
2021/12/30 01:54:59;;;;;;;78.95;42.08;;;;;;;-0.79;94.20;98901.40;1798975;77;21507;-61
2021/12/30 01:57:26;;;;;;;76.30;40.92;;;;;;;-0.77;94.19;98899.67;1798941;77;20965;-62
2021/12/30 01:59:53;;;;;;;78.40;40.15;;;;;;;-0.76;94.17;98892.82;1799516;77;21075;-61
2021/12/30 02:02:19;;;;;;;78.37;40.10;;;;;;;-0.76;94.09;98896.23;1818765;77;20967;-61
2021/12/30 02:04:46;;;;;;;76.05;40.43;;;;;;;-0.73;94.16;98904.31;1795841;77;20907;-61
2021/12/30 02:07:14;;;;;;;74.40;39.60;;;;;;;-0.72;94.14;98918.41;1799143;77;20944;-61
2021/12/30 02:09:40;;;;;;;;;;;;;;;-0.72;94.17;98908.14;1767186;79;20923;-61
2021/12/30 02:12:08;;;;;;;80.85;41.75;;;;;;;-0.68;94.25;98917.47;1748200;80;21046;-61
2021/12/30 02:14:35;;;;;;;74.55;39.95;;;;;;;-0.66;94.21;98924.31;1746127;80;21897;-61
2021/12/30 02:17:04;;;;;;;79.53;39.85;;;;;;;-0.66;94.13;98924.31;1767034;80;20954;-62
2021/12/30 02:19:32;;;;;;;75.42;40.33;;;;;;;-0.68;94.07;98921.31;1757402;79;21024;-61
2021/12/30 02:21:59;;;;;;;70.25;38.85;;;;;;;-0.66;94.09;98914.06;1746339;80;21575;-61
2021/12/30 02:24:26;;;;;;;70.95;40.08;;;;;;;-0.65;94.14;98908.89;1737401;80;22039;-61
2021/12/30 02:26:52;;;;;;;77.67;39.30;;;;;;;-0.64;94.17;98908.04;1735979;81;21462;-61
2021/12/30 02:29:19;;;;;;;71.70;38.58;;;;;;;-0.64;94.10;98906.76;1723686;80;21052;-61
2021/12/30 02:31:46;;;;;;;66.53;38.10;;;;;;;-0.66;94.02;98912.78;1740283;80;20955;-61
2021/12/30 02:34:12;;;;;;;83.13;40.53;;;;;;;-0.68;94.06;98909.78;1733601;80;20995;-61
2021/12/30 02:36:39;;;;;;;72.53;39.17;;;;;;;-0.65;94.13;98901.64;1745247;80;21097;-61
2021/12/30 02:39:09;;;;;;;78.53;39.80;;;;;;;-0.64;94.20;98894.34;1747931;80;20885;-62
2021/12/30 02:41:38;;;;;;;83.60;38.95;;;;;;;-0.60;94.24;98896.02;1740696;80;21073;-61
2021/12/30 02:44:07;;;;;;;72.37;38.10;;;;;;;-0.60;94.27;98890.89;1744080;80;21528;-61
2021/12/30 02:46:35;;;;;;;71.65;40.12;;;;;;;-0.60;94.22;98881.91;1738758;81;20943;-61
2021/12/30 02:49:03;;;;;;;68.80;39.13;;;;;;;-0.60;94.22;98885.76;1739815;80;21963;-61
2021/12/30 02:51:30;;;;;;;66.65;37.73;;;;;;;-0.62;94.19;98895.18;1756425;79;20967;-61
2021/12/30 02:53:56;;;;;;;78.83;40.70;;;;;;;-0.60;94.25;98902.42;1730011;80;20911;-61
2021/12/30 02:56:25;;;;;;;77.80;40.92;;;;;;;-0.60;94.30;98899.86;1739794;80;20950;-61
2021/12/30 02:58:52;;;;;;;78.75;41.18;;;;;;;-0.59;94.26;98902.83;1764347;79;20946;-61
2021/12/30 03:01:24;;;;;;;76.57;40.43;;;;;;;-0.56;94.33;98887.39;1743406;80;21259;-61
2021/12/30 03:03:51;;;;;;;75.25;40.75;;;;;;;-0.56;94.33;98887.39;1737258;81;20963;-61
2021/12/30 03:06:18;;;;;;;75.70;40.80;;;;;;;-0.56;94.34;98889.95;1746719;80;20935;-61
2021/12/30 03:08:47;;;;;;;78.62;40.85;;;;;;;-0.56;94.27;98883.54;1734507;80;20966;-61
2021/12/30 03:11:15;;;;;;;70.08;38.95;;;;;;;-0.58;94.20;98894.28;1740791;80;20923;-61
2021/12/30 03:13:44;;;;;;;66.02;37.48;;;;;;;-0.57;94.35;98892.95;1750068;80;21069;-61
2021/12/30 03:16:16;;;;;;;69.03;36.17;;;;;;;-0.55;94.45;98887.38;1803254;77;20891;-62
2021/12/30 03:18:46;;;;;;;78.55;40.90;;;;;;;-0.54;94.42;98885.66;1810168;77;20912;-61
2021/12/30 03:21:16;;;;;;;74.87;38.40;;;;;;;-0.56;94.31;98892.52;1808717;77;20905;-61
2021/12/30 03:23:43;;;;;;;70.42;36.73;;;;;;;-0.55;94.52;98887.38;1806796;77;20918;-62
2021/12/30 03:26:10;;;;;;;68.90;37.23;;;;;;;-0.52;94.52;98890.33;1809158;77;22616;-61
2021/12/30 03:28:40;;;;;;;70.72;37.98;;;;;;;-0.54;94.42;98886.50;1813408;77;20920;-61
2021/12/30 03:31:08;;;;;;;62.23;35.63;;;;;;;-0.54;94.47;98889.50;1733486;79;20906;-62
2021/12/30 03:33:35;;;;;;;73.42;35.60;;;;;;;-0.53;94.52;98887.37;1802572;77;21027;-61
2021/12/30 03:36:06;;;;;;;62.10;34.10;;;;;;;-0.52;94.54;98887.77;1812309;77;20930;-62
2021/12/30 03:38:37;;;;;;;74.07;39.83;;;;;;;-0.51;94.55;98893.30;1805064;77;21458;-61
2021/12/30 03:41:07;;;;;;;73.05;38.25;;;;;;;-0.50;94.61;98897.58;1795105;77;21457;-61
2021/12/30 03:43:35;;;;;;;66.30;37.28;;;;;;;-0.45;94.76;98903.45;1793801;77;20905;-61
2021/12/30 03:46:04;;;;;;;63.95;35.20;;;;;;;-0.43;94.75;98904.28;1806476;77;21110;-61
2021/12/30 03:48:33;;;;;;;74.50;33.90;;;;;;;-0.40;94.80;98897.81;1814706;77;20965;-61
2021/12/30 03:51:08;;;;;;;61.35;32.98;;;;;;;-0.37;94.75;98892.64;1779821;77;21074;-61
2021/12/30 03:53:38;;;;;;;63.45;33.53;;;;;;;-0.34;94.80;98891.30;1758017;79;21930;-61
2021/12/30 03:56:11;;;;;;;59.70;33.25;;;;;;;-0.34;94.77;98901.56;1732127;80;21657;-61
2021/12/30 03:58:41;;;;;;;66.55;34.67;;;;;;;-0.33;94.80;98903.27;1740953;80;21466;-61
2021/12/30 04:01:11;;;;;;;76.17;36.60;;;;;;;-0.28;94.96;98904.05;1740347;80;20927;-61
2021/12/30 04:03:38;;;;;;;74.95;36.98;;;;;;;-0.25;95.00;98909.13;1722448;79;21286;-61
2021/12/30 04:06:05;;;;;;;89.13;38.23;;;;;;;-0.22;95.05;98914.65;1739055;80;20935;-61
2021/12/30 04:08:32;;;;;;;106.10;39.50;;;;;;;-0.16;95.20;98917.55;1763381;79;20897;-61
2021/12/30 04:11:13;;;;;;;88.10;38.78;;;;;;;-0.13;95.12;98907.23;1766154;79;20943;-61
2021/12/30 04:13:40;;;;;;;85.83;38.17;;;;;;;-0.11;95.12;98910.59;1805946;77;20907;-61
2021/12/30 04:16:08;;;;;;;77.55;36.90;;;;;;;-0.08;95.12;98924.23;1799826;78;21054;-61
2021/12/30 04:18:35;;;;;;;66.62;33.35;;;;;;;-0.06;95.12;98921.63;1766161;80;20925;-61
2021/12/30 04:21:02;;;;;;;66.62;36.68;;;;;;;-0.05;95.08;98916.93;1755555;80;20867;-62
2021/12/30 04:23:29;;;;;;;70.95;36.42;;;;;;;-0.05;95.00;98920.78;1806309;77;27530;-61
2021/12/30 04:25:56;;;;;;;72.87;36.35;;;;;;;-0.05;95.03;98919.49;1800107;77;20936;-61
2021/12/30 04:28:23;;;;;;;70.52;36.10;;;;;;;-0.03;95.01;98919.88;1814119;77;21189;-61
2021/12/30 04:30:50;;;;;;;71.62;36.90;;;;;;;0.01;95.09;98927.08;1805998;77;20848;-61
2021/12/30 04:33:17;;;;;;;71.77;37.27;;;;;;;0.04;95.23;98924.46;1812783;77;20980;-61
2021/12/30 04:35:44;;;;;;;66.47;36.23;;;;;;;0.05;95.20;98929.99;1814235;77;21745;-61
2021/12/30 04:38:11;;;;;;;61.30;34.57;;;;;;;0.00;95.18;98920.27;1816109;77;20914;-61
2021/12/30 04:40:37;;;;;;;64.47;34.45;;;;;;;0.00;95.18;98920.27;1805435;77;22151;-61
2021/12/30 04:43:04;;;;;;;59.10;33.37;;;;;;;0.12;95.11;98931.59;1802418;77;21539;-61
2021/12/30 04:45:31;;;;;;;67.10;35.37;;;;;;;0.14;95.19;98928.57;1816517;77;20947;-61
2021/12/30 04:47:57;;;;;;;60.75;34.45;;;;;;;0.14;95.13;98922.16;1815594;77;20998;-61
2021/12/30 04:50:25;;;;;;;63.90;34.05;;;;;;;0.15;95.08;98927.69;1821892;77;20989;-61
2021/12/30 04:52:52;;;;;;;56.35;33.55;;;;;;;0.17;95.10;98914.39;1773342;79;21508;-61
2021/12/30 04:55:19;;;;;;;62.07;33.57;;;;;;;0.16;95.03;98919.09;1812730;77;20958;-60
2021/12/30 04:57:46;;;;;;;63.58;33.13;;;;;;;0.17;95.15;98906.69;1802161;77;21436;-61
2021/12/30 05:00:15;;;;;;;61.33;33.25;;;;;;;0.18;95.09;98909.66;1808817;77;20892;-61
2021/12/30 05:03:07;;;;;;;63.25;32.63;;;;;;;0.20;95.10;98914.33;1813531;77;20959;-62
2021/12/30 05:05:19;;;;;;;67.45;33.98;;;;;;;0.21;95.15;98917.73;1809157;77;21046;-61
2021/12/30 05:07:46;;;;;;;61.28;34.23;;;;;;;0.20;95.20;98916.90;1792313;77;20979;-61
2021/12/30 05:10:12;;;;;;;62.17;33.13;;;;;;;0.24;95.30;98916.84;1820103;77;20935;-61
2021/12/30 05:12:39;;;;;;;67.42;34.88;;;;;;;0.24;95.16;98913.83;1818348;77;20951;-62
2021/12/30 05:15:06;;;;;;;64.60;35.08;;;;;;;0.24;95.15;98901.44;1811823;77;20946;-61
2021/12/30 05:17:35;;;;;;;63.25;34.27;;;;;;;0.21;95.07;98886.93;1815811;77;21087;-61
2021/12/30 05:20:03;;;;;;;66.57;34.63;;;;;;;0.20;95.05;98883.52;1807176;77;20957;-62
2021/12/30 05:22:30;;;;;;;66.53;35.70;;;;;;;0.17;94.97;98882.30;1816836;77;20941;-61
2021/12/30 05:24:57;;;;;;;69.00;36.03;;;;;;;0.13;94.92;98885.78;1805722;77;20962;-61
2021/12/30 05:27:23;;;;;;;72.07;36.03;;;;;;;0.12;95.16;98885.39;1808368;77;21143;-61
2021/12/30 05:29:50;;;;;;;64.57;34.67;;;;;;;0.13;95.11;98883.22;1808930;77;21375;-61
2021/12/30 05:32:17;;;;;;;65.87;34.90;;;;;;;0.12;95.10;98878.97;1807096;77;20891;-62
2021/12/30 05:34:44;;;;;;;63.00;32.70;;;;;;;0.11;95.09;98887.55;1814705;77;20895;-61
2021/12/30 05:37:10;;;;;;;62.75;31.50;;;;;;;0.09;95.14;98883.32;1817952;77;20879;-62
2021/12/30 05:39:41;;;;;;;62.25;34.75;;;;;;;0.09;95.19;98893.14;1822871;77;20907;-61
2021/12/30 05:42:06;;;;;;;58.63;32.17;;;;;;;0.08;95.17;98899.12;1776981;79;21093;-61
2021/12/30 05:44:33;;;;;;;60.00;32.78;;;;;;;0.10;95.31;98887.13;1757557;79;21026;-61
2021/12/30 05:47:00;;;;;;;57.62;32.33;;;;;;;0.09;95.25;98884.16;1756941;80;20981;-61
2021/12/30 05:49:26;;;;;;;57.17;32.55;;;;;;;0.12;95.35;98882.82;1751685;80;21015;-61
2021/12/30 05:51:53;;;;;;;53.30;30.87;;;;;;;0.15;95.44;98878.91;1775721;79;20931;-61
2021/12/30 05:54:20;;;;;;;57.55;32.93;;;;;;;0.16;95.34;98894.70;1771284;79;21663;-61
2021/12/30 05:56:46;;;;;;;61.83;33.20;;;;;;;0.16;95.34;98906.26;1767530;80;20884;-61
2021/12/30 05:59:13;;;;;;;62.90;34.77;;;;;;;0.19;95.46;98904.91;1770172;79;20948;-61
2021/12/30 06:01:40;;;;;;;54.70;31.77;;;;;;;0.20;95.43;98916.90;1767166;79;20971;-61
2021/12/30 06:04:07;;;;;;;57.98;31.73;;;;;;;0.26;95.64;98920.23;1758652;79;20920;-61
2021/12/30 06:06:34;;;;;;;62.63;32.80;;;;;;;0.29;95.70;98925.31;1766858;79;21166;-61
2021/12/30 06:09:00;;;;;;;58.37;31.73;;;;;;;0.33;95.73;98925.65;1734505;80;21616;-61
2021/12/30 06:11:27;;;;;;;61.57;33.90;;;;;;;0.33;95.58;98941.05;1731773;81;20893;-61
2021/12/30 06:13:54;;;;;;;62.10;32.43;;;;;;;0.34;95.60;98944.05;1731207;80;20934;-61
2021/12/30 06:16:21;;;;;;;57.15;31.60;;;;;;;0.34;95.58;98949.19;1735500;80;21411;-61
2021/12/30 06:18:49;;;;;;;60.37;34.00;;;;;;;0.40;95.84;98942.66;1729832;80;21796;-61
2021/12/30 06:21:16;;;;;;;64.35;33.00;;;;;;;0.40;95.72;98937.52;1691958;81;21561;-61
2021/12/30 06:23:43;;;;;;;71.73;36.23;;;;;;;0.40;95.58;98924.67;1735772;80;21032;-61
2021/12/30 06:26:10;;;;;;;57.67;32.88;;;;;;;0.39;95.50;98928.09;1741541;80;20919;-61
2021/12/30 06:28:36;;;;;;;64.72;37.35;;;;;;;0.40;95.55;98931.09;1734323;80;20960;-61
2021/12/30 06:31:03;;;;;;;66.13;36.50;;;;;;;0.40;95.53;98938.80;1735996;80;21095;-61
2021/12/30 06:33:30;;;;;;;67.00;35.08;;;;;;;0.40;95.54;98941.37;1775771;77;21006;-61
2021/12/30 06:35:57;;;;;;;60.70;31.85;;;;;;;0.42;95.54;98949.45;1796906;77;20895;-61
2021/12/30 06:38:23;;;;;;;60.73;35.33;;;;;;;0.43;95.48;98949.01;1809587;77;20960;-62
2021/12/30 06:40:51;;;;;;;59.63;34.20;;;;;;;0.40;95.38;98947.79;1813522;77;21451;-61
2021/12/30 06:43:17;;;;;;;59.73;33.50;;;;;;;0.40;95.48;98956.77;1798845;77;21445;-61
2021/12/30 06:45:44;;;;;;;63.73;33.63;;;;;;;0.41;95.49;98945.61;1791879;78;21115;-61
2021/12/30 06:48:16;;;;;;;59.63;33.63;;;;;;;0.42;95.43;98951.15;1794454;79;20941;-61
2021/12/30 06:50:51;;;;;;;59.83;33.88;;;;;;;0.39;95.46;98942.22;1807710;77;20934;-61
2021/12/30 06:53:11;;;;;;;61.68;32.73;;;;;;;0.41;95.51;98943.05;1803772;77;20991;-61
2021/12/30 06:55:39;;;;;;;63.60;34.33;;;;;;;0.44;95.60;98951.98;1798659;77;21061;-61
2021/12/30 06:58:06;;;;;;;63.28;34.98;;;;;;;0.50;95.91;98950.57;1804780;77;20882;-61
2021/12/30 07:00:33;;;;;;;64.07;34.20;;;;;;;0.54;95.84;98954.80;1820368;77;21399;-61
2021/12/30 07:03:02;;;;;;;65.17;35.43;;;;;;;0.53;95.69;98959.50;1815423;77;20954;-61
2021/12/30 07:05:29;;;;;;;64.53;34.92;;;;;;;0.55;95.60;98963.34;1808179;77;21103;-61
2021/12/30 07:07:56;;;;;;;62.40;35.35;;;;;;;0.57;95.72;98970.14;1810931;77;21075;-61
2021/12/30 07:10:22;;;;;;;59.83;33.92;;;;;;;0.61;95.72;98970.48;1821243;77;20931;-61
2021/12/30 07:12:49;;;;;;;73.57;40.40;;;;;;;0.62;95.69;98968.34;1818999;77;20950;-62
2021/12/30 07:15:16;;;;;;;79.90;43.37;;;;;;;0.63;95.60;98964.05;1814693;77;20998;-62
2021/12/30 07:17:45;;;;;;;66.50;37.53;;;;;;;0.64;95.61;98971.73;1820868;77;21671;-62
2021/12/30 07:20:13;;;;;;;60.90;33.23;;;;;;;0.68;95.71;98974.24;1815036;77;21028;-61
2021/12/30 07:22:40;;;;;;;57.45;31.82;;;;;;;0.71;95.74;98976.75;1813815;77;20955;-61
2021/12/30 07:25:09;;;;;;;55.25;32.88;;;;;;;0.73;95.68;98974.98;1812871;77;20904;-61
2021/12/30 07:27:36;;;;;;;62.05;32.85;;;;;;;0.71;95.50;98978.03;1818960;77;20955;-61
2021/12/30 07:30:04;;;;;;;59.67;33.63;;;;;;;0.75;95.69;98973.23;1815518;77;21124;-61
2021/12/30 07:32:35;;;;;;;62.30;32.20;;;;;;;0.75;95.68;98980.94;1818739;77;21152;-61
2021/12/30 07:35:02;;;;;;;56.00;32.42;;;;;;;0.79;95.72;98977.45;1813521;77;20945;-62
2021/12/30 07:37:36;;;;;;;61.53;34.53;;;;;;;0.80;95.77;98976.56;1761387;80;21027;-61
2021/12/30 07:40:06;;;;;;;64.35;33.90;;;;;;;0.85;95.84;98973.47;1739363;80;21486;-61
2021/12/30 07:42:33;;;;;;;64.97;35.58;;;;;;;0.87;95.79;98965.30;1788512;79;21050;-61
2021/12/30 07:45:04;;;;;;;60.35;33.23;;;;;;;0.90;95.75;98967.80;1774603;79;21080;-61
2021/12/30 07:47:30;;;;;;;63.20;36.75;;;;;;;0.91;95.73;98960.49;1781636;78;20920;-61
2021/12/30 07:49:59;;;;;;;71.90;36.73;;;;;;;0.87;95.56;98957.59;1773702;79;21048;-61
2021/12/30 07:52:26;;;;;;;65.45;35.17;;;;;;;0.90;95.75;98957.52;1776534;79;20928;-60
2021/12/30 07:54:53;;;;;;;68.35;37.93;;;;;;;0.90;95.65;98956.23;1769436;79;20916;-60
2021/12/30 07:57:22;;;;;;;68.15;37.35;;;;;;;0.91;95.76;98946.35;1760536;79;21669;-60
2021/12/30 07:59:51;;;;;;;70.95;36.80;;;;;;;0.92;95.70;98944.63;1775669;79;20905;-60
2021/12/30 08:02:18;;;;;;;62.17;33.63;;;;;;;0.92;95.67;98935.19;1775041;79;20914;-60
2021/12/30 08:04:45;;;;;;;72.42;37.13;;;;;;;0.98;95.75;98931.64;1769846;79;21502;-60
2021/12/30 08:07:13;;;;;;;65.85;35.52;;;;;;;1.02;95.81;98928.98;1775753;79;20958;-60
2021/12/30 08:09:41;;;;;;;68.83;34.53;;;;;;;1.07;95.81;98924.59;1768382;79;21220;-60
2021/12/30 08:12:08;;;;;;;63.10;32.83;;;;;;;1.13;95.81;98915.06;1769120;79;20959;-60
2021/12/30 08:14:35;;;;;;;62.93;34.18;;;;;;;1.17;95.82;98911.53;1775139;79;20844;-60
2021/12/30 08:17:02;;;;;;;58.77;29.37;;;;;;;1.23;96.02;98913.95;1770661;79;21059;-60
2021/12/30 08:19:29;;;;;;;60.65;32.05;;;;;;;1.28;95.89;98911.69;1770337;79;26918;-60
2021/12/30 08:21:56;;;;;;;56.98;31.05;;;;;;;1.26;95.70;98916.05;1727727;80;21189;-60
2021/12/30 08:24:23;;;;;;;49.45;29.30;;;;;;;1.27;95.66;98914.31;1751267;79;21551;-60
2021/12/30 08:26:50;;;;;;;49.42;27.82;;;;;;;1.28;95.74;98914.27;1813902;77;21038;-59
2021/12/30 08:29:17;;;;;;;53.65;29.50;;;;;;;1.30;95.75;98913.80;1813479;77;20931;-60
2021/12/30 08:31:43;;;;;;;48.50;26.40;;;;;;;1.35;95.88;98916.27;1810367;77;21013;-61
2021/12/30 08:34:10;;;;;;;52.05;26.10;;;;;;;1.43;95.93;98910.92;1812144;77;21080;-59
2021/12/30 08:36:37;;;;;;;52.05;26.25;;;;;;;1.45;95.86;98915.16;1804612;77;21441;-60
2021/12/30 08:39:04;;;;;;;54.63;29.18;;;;;;;1.49;95.83;98913.38;1809208;77;21468;-60
2021/12/30 08:41:31;;;;;;;44.00;26.00;;;;;;;1.50;95.71;98906.90;1802672;77;20935;-60
2021/12/30 08:43:57;;;;;;;48.87;26.40;;;;;;;1.61;95.97;98914.81;1816524;77;20864;-60
2021/12/30 08:46:24;;;;;;;49.63;28.80;;;;;;;1.78;96.18;98910.10;1821215;77;21055;-61
2021/12/30 08:48:51;;;;;;;43.40;25.05;;;;;;;1.95;96.25;98904.08;1814443;77;21438;-61
2021/12/30 08:51:18;;;;;;;76.22;43.42;;;;;;;2.09;96.12;98909.33;1817243;77;20927;-62
2021/12/30 08:53:47;;;;;;;54.83;33.20;;;;;;;2.16;95.87;98898.84;1804852;77;20941;-61
2021/12/30 08:56:14;;;;;;;47.83;26.65;;;;;;;2.26;95.93;98894.27;1799688;77;20967;-61
2021/12/30 08:58:42;;;;;;;48.08;26.70;;;;;;;2.35;95.70;98887.61;1798701;77;21147;-62
2021/12/30 09:01:14;;;;;;;50.48;27.87;;;;;;;2.48;95.84;98884.68;1805958;77;20926;-61
2021/12/30 09:03:41;;;;;;;50.83;27.95;;;;;;;2.53;95.54;98886.24;1808767;77;20966;-61
2021/12/30 09:06:08;;;;;;;48.40;28.02;;;;;;;2.57;95.46;98893.44;1799480;77;20970;-60
2021/12/30 09:08:34;;;;;;;53.23;30.07;;;;;;;2.61;95.30;98892.48;1802044;77;21494;-60
2021/12/30 09:11:01;;;;;;;51.98;30.15;;;;;;;2.60;95.24;98887.74;1814367;77;21853;-60
2021/12/30 09:13:28;;;;;;;51.15;30.02;;;;;;;2.58;95.12;98882.26;1818662;77;20920;-60
2021/12/30 09:15:56;;;;;;;51.07;29.80;;;;;;;2.61;95.28;98883.45;1799440;77;20961;-61
2021/12/30 09:18:24;;;;;;;57.00;30.27;;;;;;;2.66;95.49;98882.86;1802398;77;21020;-61
2021/12/30 09:20:51;;;;;;;58.13;31.37;;;;;;;2.67;95.29;98876.83;1816681;77;20981;-61
2021/12/30 09:23:18;;;;;;;58.83;33.02;;;;;;;2.66;95.17;98877.70;1811470;77;21869;-61
2021/12/30 09:25:46;;;;;;;61.20;33.58;;;;;;;2.68;95.19;98881.09;1820584;77;24693;-62
2021/12/30 09:28:15;;;;;;;58.70;33.00;;;;;;;2.70;95.10;98884.48;1817915;77;20931;-61
2021/12/30 09:30:48;;;;;;;63.75;34.88;;;;;;;2.72;95.14;98876.27;1807506;77;21019;-61
2021/12/30 09:33:16;;;;;;;58.02;34.15;;;;;;;2.74;95.07;98874.91;1811224;77;20946;-60
2021/12/30 09:35:51;;;;;;;57.93;32.58;;;;;;;2.73;95.09;98868.92;1787960;77;21744;-60
2021/12/30 09:38:15;;;;;;;59.88;33.60;;;;;;;2.76;95.17;98870.11;1816888;77;21467;-60
2021/12/30 09:40:44;;;;;;;56.02;31.68;;;;;;;2.74;95.05;98873.17;1806220;77;20970;-60
2021/12/30 09:43:18;;;;;;;56.53;31.33;;;;;;;2.77;95.08;98879.52;1815927;77;20932;-60
2021/12/30 09:45:45;;;;;;;53.83;30.45;;;;;;;2.78;95.13;98885.10;1820262;77;21621;-60
2021/12/30 09:48:16;;;;;;;50.67;28.75;;;;;;;2.85;95.19;98886.59;1807569;77;20938;-60
2021/12/30 09:50:53;;;;;;;56.92;32.20;;;;;;;2.91;95.22;98881.70;1792178;77;20919;-61
2021/12/30 09:53:25;;;;;;;56.85;30.92;;;;;;;2.95;95.21;98884.61;1750958;79;20965;-60
2021/12/30 09:55:59;;;;;;;54.18;30.27;;;;;;;2.97;95.12;98884.55;1763798;80;21074;-61
2021/12/30 09:58:29;;;;;;;58.13;32.63;;;;;;;3.11;95.60;98887.58;1773513;78;20990;-61
2021/12/30 10:01:06;;;;;;;48.38;29.65;;;;;;;3.13;95.17;98878.04;1807601;77;21675;-61
2021/12/30 10:03:35;;;;;;;54.63;30.32;;;;;;;3.13;94.96;98880.62;1806859;77;21626;-61
2021/12/30 10:06:11;;;;;;;53.50;30.92;;;;;;;3.10;94.95;98880.72;1818546;77;21051;-61
2021/12/30 10:08:55;;;;;;;55.52;30.70;;;;;;;3.17;95.37;98888.67;1809488;77;20969;-61
2021/12/30 10:11:24;;;;;;;61.60;32.73;;;;;;;3.17;95.28;98884.81;1798090;77;21632;-61
2021/12/30 10:13:57;;;;;;;55.25;31.48;;;;;;;3.18;95.26;98891.64;1769199;79;21121;-60
2021/12/30 10:16:26;;;;;;;60.50;34.60;;;;;;;3.19;95.19;98890.74;1747119;80;20935;-60
2021/12/30 10:19:02;;;;;;;64.85;36.70;;;;;;;3.16;95.09;98888.26;1805247;77;21052;-60
2021/12/30 10:21:37;;;;;;;65.32;37.70;;;;;;;3.17;95.15;98882.23;1809800;77;21536;-61
2021/12/30 10:24:12;;;;;;;57.75;37.40;;;;;;;3.15;95.19;98878.84;1809146;77;20926;-61
2021/12/30 10:26:56;;;;;;;58.85;34.38;;;;;;;3.17;95.34;98874.48;1809796;77;21247;-61
2021/12/30 10:29:25;;;;;;;60.12;34.85;;;;;;;3.16;95.17;98876.65;1811467;77;21653;-61
2021/12/30 10:31:59;;;;;;;60.50;31.35;;;;;;;3.19;95.35;98868.81;1797861;77;20894;-61
2021/12/30 10:34:29;;;;;;;53.58;30.55;;;;;;;3.21;95.32;98860.59;1780695;77;21379;-61
2021/12/30 10:36:56;;;;;;;52.67;30.75;;;;;;;3.31;95.58;98856.84;1792528;77;20935;-61
2021/12/30 10:39:33;;;;;;;54.63;29.30;;;;;;;3.38;95.55;98854.90;1806280;77;21030;-60
2021/12/30 10:42:19;;;;;;;54.48;29.25;;;;;;;3.40;95.31;98854.86;1816496;76;21163;-61
2021/12/30 10:44:54;;;;;;;50.70;29.20;;;;;;;3.43;95.39;98844.44;1796124;77;21122;-61
2021/12/30 10:47:24;;;;;;;44.98;25.88;;;;;;;3.41;95.20;98832.02;1801728;77;20912;-61
2021/12/30 10:50:01;;;;;;;48.50;27.13;;;;;;;3.35;94.94;98835.20;1781033;79;20911;-61
2021/12/30 10:52:33;;;;;;;43.98;25.55;;;;;;;3.28;94.90;98844.05;1767764;79;20926;-61
2021/12/30 10:55:16;;;;;;;42.98;25.62;;;;;;;3.24;95.11;98852.75;1809674;77;21170;-61
2021/12/30 10:57:48;;;;;;;49.15;24.98;;;;;;;3.21;95.25;98853.30;1802673;76;20958;-61
2021/12/30 11:00:34;;;;;;;46.42;24.95;;;;;;;3.18;95.36;98852.11;1795877;77;21022;-60
2021/12/30 11:03:29;;;;;;;46.18;24.75;;;;;;;3.17;95.50;98848.70;1802556;77;20935;-61
2021/12/30 11:06:17;;;;;;;43.38;23.95;;;;;;;3.22;95.79;98847.23;1800389;77;21419;-61
2021/12/30 11:08:50;;;;;;;40.75;23.47;;;;;;;3.26;95.78;98839.81;1815746;77;20921;-61
2021/12/30 11:11:29;;;;;;;41.77;23.87;;;;;;;3.33;95.78;98832.27;1805778;77;21460;-60
2021/12/30 11:14:09;;;;;;;37.23;21.48;;;;;;;3.42;95.71;98827.25;1807512;77;20975;-61
2021/12/30 11:17:21;;;;;;;35.92;21.45;;;;;;;3.47;95.57;98821.50;1815942;77;21673;-61
2021/12/30 11:19:56;;;;;;;38.20;22.13;;;;;;;3.50;95.57;98832.59;1799689;78;20993;-61
2021/12/30 11:22:27;;;;;;;37.15;22.48;;;;;;;3.59;95.81;98840.47;1809874;77;21442;-61
2021/12/30 11:24:57;;;;;;;34.95;20.62;;;;;;;3.59;95.53;98835.31;1758843;79;21006;-61
2021/12/30 11:27:27;;;;;;;41.98;22.60;;;;;;;3.62;95.62;98842.95;1761407;80;20968;-60
2021/12/30 11:30:03;;;;;;;50.73;23.55;;;;;;;3.65;95.66;98848.01;1730925;80;20987;-61